Terminal Aerodrome Forecast
Issued by NWS

Home | Current Version | Previous Version | Text Only | Print | Product List | Glossary Off
Versions: 1 2 3 4 5 6 7 8 9 10 11 12 13 14 15 16

000
FTUS43 KICT 172338
TAFSLN
TAF
KSLN 172338Z 1800/1824 18014KT P6SM SCT200
     FM180100 17006KT P6SM SCT200
     FM181000 VRB03KT P6SM FEW250
     FM181900 13006KT P6SM SCT250=

USA.gov is the U.S. government's official web portal to all federal, state and local government web resources and services.